sensor_id;sensor_type;location;lat;lon;timestamp;pressure;altitude;pressure_sealevel;temperature;humidity
68193;BME280;55012;47.562;18.414;2024-03-08T00:00:02;100558.69;;;4.73;100.00
68193;BME280;55012;47.562;18.414;2024-03-08T00:02:40;100561.06;;;4.74;100.00
68193;BME280;55012;47.562;18.414;2024-03-08T00:05:07;100553.56;;;4.76;100.00
68193;BME280;55012;47.562;18.414;2024-03-08T00:07:36;100558.63;;;4.78;100.00
68193;BME280;55012;47.562;18.414;2024-03-08T00:10:06;100553.84;;;4.75;100.00
68193;BME280;55012;47.562;18.414;2024-03-08T00:12:32;100554.91;;;4.74;100.00
68193;BME280;55012;47.562;18.414;2024-03-08T00:14:57;100552.25;;;4.69;100.00
68193;BME280;55012;47.562;18.414;2024-03-08T00:17:23;100554.69;;;4.65;100.00
68193;BME280;55012;47.562;18.414;2024-03-08T00:19:49;100546.63;;;4.60;100.00
68193;BME280;55012;47.562;18.414;2024-03-08T00:22:17;100538.88;;;4.54;100.00
68193;BME280;55012;47.562;18.414;2024-03-08T00:24:43;100546.41;;;4.51;100.00
68193;BME280;55012;47.562;18.414;2024-03-08T00:27:09;100542.63;;;4.53;100.00
68193;BME280;55012;47.562;18.414;2024-03-08T00:29:34;100552.84;;;4.56;100.00
68193;BME280;55012;47.562;18.414;2024-03-08T00:32:00;100547.19;;;4.57;100.00
68193;BME280;55012;47.562;18.414;2024-03-08T00:34:26;100544.25;;;4.54;100.00
68193;BME280;55012;47.562;18.414;2024-03-08T00:36:51;100540.75;;;4.53;100.00
68193;BME280;55012;47.562;18.414;2024-03-08T00:39:18;100539.69;;;4.54;100.00
68193;BME280;55012;47.562;18.414;2024-03-08T00:41:45;100538.63;;;4.55;100.00
68193;BME280;55012;47.562;18.414;2024-03-08T00:44:10;100537.00;;;4.59;100.00
68193;BME280;55012;47.562;18.414;2024-03-08T00:46:36;100533.00;;;4.57;100.00
68193;BME280;55012;47.562;18.414;2024-03-08T00:49:01;100534.59;;;4.58;100.00
68193;BME280;55012;47.562;18.414;2024-03-08T00:51:26;100532.44;;;4.60;100.00
68193;BME280;55012;47.562;18.414;2024-03-08T00:53:52;100526.00;;;4.61;100.00
68193;BME280;55012;47.562;18.414;2024-03-08T00:56:17;100521.16;;;4.63;100.00
68193;BME280;55012;47.562;18.414;2024-03-08T00:58:42;100525.72;;;4.62;100.00
68193;BME280;55012;47.562;18.414;2024-03-08T01:01:08;100518.53;;;4.53;100.00
68193;BME280;55012;47.562;18.414;2024-03-08T01:03:35;100512.41;;;4.42;100.00
68193;BME280;55012;47.562;18.414;2024-03-08T01:06:01;100510.00;;;4.40;100.00
68193;BME280;55012;47.562;18.414;2024-03-08T01:08:26;100506.75;;;4.43;100.00
68193;BME280;55012;47.562;18.414;2024-03-08T01:10:52;100503.00;;;4.49;100.00
68193;BME280;55012;47.562;18.414;2024-03-08T01:13:18;100504.84;;;4.54;100.00
68193;BME280;55012;47.562;18.414;2024-03-08T01:15:44;100498.13;;;4.62;100.00
68193;BME280;55012;47.562;18.414;2024-03-08T01:18:10;100494.91;;;4.65;100.00
68193;BME280;55012;47.562;18.414;2024-03-08T01:20:35;100501.31;;;4.69;100.00
68193;BME280;55012;47.562;18.414;2024-03-08T01:23:01;100504.25;;;4.72;100.00
68193;BME280;55012;47.562;18.414;2024-03-08T01:25:26;100503.69;;;4.75;100.00
68193;BME280;55012;47.562;18.414;2024-03-08T01:27:52;100499.16;;;4.76;100.00
68193;BME280;55012;47.562;18.414;2024-03-08T01:30:19;100499.94;;;4.76;100.00
68193;BME280;55012;47.562;18.414;2024-03-08T01:32:44;100492.16;;;4.80;100.00
68193;BME280;55012;47.562;18.414;2024-03-08T01:35:10;100490.53;;;4.79;100.00
68193;BME280;55012;47.562;18.414;2024-03-08T01:37:35;100492.66;;;4.87;100.00
68193;BME280;55012;47.562;18.414;2024-03-08T01:40:01;100484.59;;;4.87;100.00
68193;BME280;55012;47.562;18.414;2024-03-08T01:42:28;100486.47;;;4.92;100.00
68193;BME280;55012;47.562;18.414;2024-03-08T01:44:53;100480.31;;;4.91;100.00
68193;BME280;55012;47.562;18.414;2024-03-08T01:47:19;100474.44;;;4.89;100.00
68193;BME280;55012;47.562;18.414;2024-03-08T01:49:51;100468.50;;;4.87;100.00
68193;BME280;55012;47.562;18.414;2024-03-08T01:52:17;100471.19;;;4.87;100.00
68193;BME280;55012;47.562;18.414;2024-03-08T01:54:45;100462.63;;;4.85;100.00
68193;BME280;55012;47.562;18.414;2024-03-08T01:57:12;100467.72;;;4.87;100.00
68193;BME280;55012;47.562;18.414;2024-03-08T01:59:37;100462.91;;;4.89;100.00
68193;BME280;55012;47.562;18.414;2024-03-08T02:02:04;100456.75;;;4.83;100.00
68193;BME280;55012;47.562;18.414;2024-03-08T02:04:31;100467.19;;;4.90;100.00
68193;BME280;55012;47.562;18.414;2024-03-08T02:06:57;100461.81;;;4.90;100.00
68193;BME280;55012;47.562;18.414;2024-03-08T02:09:25;100464.78;;;4.88;100.00
68193;BME280;55012;47.562;18.414;2024-03-08T02:11:51;100461.03;;;4.89;100.00
68193;BME280;55012;47.562;18.414;2024-03-08T02:14:19;100458.06;;;4.91;100.00
68193;BME280;55012;47.562;18.414;2024-03-08T02:16:44;100454.84;;;4.89;100.00
68193;BME280;55012;47.562;18.414;2024-03-08T02:19:10;100449.50;;;4.89;100.00
68193;BME280;55012;47.562;18.414;2024-03-08T02:21:35;100451.38;;;4.88;100.00
68193;BME280;55012;47.562;18.414;2024-03-08T02:24:02;100445.19;;;4.88;100.00
68193;BME280;55012;47.562;18.414;2024-03-08T02:26:28;100451.63;;;4.87;100.00
68193;BME280;55012;47.562;18.414;2024-03-08T02:28:53;100440.66;;;4.83;100.00
68193;BME280;55012;47.562;18.414;2024-03-08T02:31:19;100443.34;;;4.83;100.00
68193;BME280;55012;47.562;18.414;2024-03-08T02:33:44;100440.38;;;4.85;100.00
68193;BME280;55012;47.562;18.414;2024-03-08T02:36:12;100442.28;;;4.84;100.00
68193;BME280;55012;47.562;18.414;2024-03-08T02:38:38;100431.03;;;4.82;100.00
68193;BME280;55012;47.562;18.414;2024-03-08T02:41:06;100435.59;;;4.82;100.00
68193;BME280;55012;47.562;18.414;2024-03-08T02:43:31;100436.38;;;4.82;100.00
68193;BME280;55012;47.562;18.414;2024-03-08T02:45:56;100430.22;;;4.82;100.00
68193;BME280;55012;47.562;18.414;2024-03-08T02:48:22;100434.50;;;4.83;100.00
68193;BME280;55012;47.562;18.414;2024-03-08T02:50:47;100438.22;;;4.87;100.00
68193;BME280;55012;47.562;18.414;2024-03-08T02:53:13;100440.66;;;4.88;100.00
68193;BME280;55012;47.562;18.414;2024-03-08T02:55:39;100436.59;;;4.91;100.00
68193;BME280;55012;47.562;18.414;2024-03-08T02:58:06;100437.41;;;4.91;100.00
68193;BME280;55012;47.562;18.414;2024-03-08T03:00:35;100430.44;;;4.90;100.00
68193;BME280;55012;47.562;18.414;2024-03-08T03:03:01;100433.13;;;4.90;100.00
68193;BME280;55012;47.562;18.414;2024-03-08T03:05:29;100436.31;;;4.92;100.00
68193;BME280;55012;47.562;18.414;2024-03-08T03:07:58;100427.19;;;4.93;100.00
68193;BME280;55012;47.562;18.414;2024-03-08T03:10:24;100425.84;;;4.96;100.00
68193;BME280;55012;47.562;18.414;2024-03-08T03:12:51;100433.06;;;4.95;100.00
68193;BME280;55012;47.562;18.414;2024-03-08T03:15:17;100432.03;;;4.91;100.00
68193;BME280;55012;47.562;18.414;2024-03-08T03:17:46;100431.75;;;4.93;100.00
68193;BME280;55012;47.562;18.414;2024-03-08T03:20:13;100435.25;;;4.93;100.00
68193;BME280;55012;47.562;18.414;2024-03-08T03:22:40;100433.34;;;4.94;100.00
68193;BME280;55012;47.562;18.414;2024-03-08T03:25:09;100436.03;;;4.94;100.00
68193;BME280;55012;47.562;18.414;2024-03-08T03:27:35;100440.03;;;4.96;100.00
68193;BME280;55012;47.562;18.414;2024-03-08T03:30:00;100432.81;;;4.97;100.00
68193;BME280;55012;47.562;18.414;2024-03-08T03:32:46;100429.84;;;4.98;100.00
68193;BME280;55012;47.562;18.414;2024-03-08T03:35:13;100433.84;;;5.01;100.00
68193;BME280;55012;47.562;18.414;2024-03-08T03:37:39;100431.75;;;4.98;100.00
68193;BME280;55012;47.562;18.414;2024-03-08T03:40:08;100427.97;;;4.99;100.00
68193;BME280;55012;47.562;18.414;2024-03-08T03:42:33;100434.66;;;4.96;100.00
68193;BME280;55012;47.562;18.414;2024-03-08T03:44:59;100431.19;;;4.96;100.00
68193;BME280;55012;47.562;18.414;2024-03-08T03:47:25;100433.06;;;4.95;100.00
68193;BME280;55012;47.562;18.414;2024-03-08T03:49:52;100428.50;;;4.96;100.00
68193;BME280;55012;47.562;18.414;2024-03-08T03:52:18;100426.09;;;4.99;100.00
68193;BME280;55012;47.562;18.414;2024-03-08T03:54:44;100433.84;;;5.01;100.00
68193;BME280;55012;47.562;18.414;2024-03-08T03:57:09;100430.38;;;5.00;100.00
68193;BME280;55012;47.562;18.414;2024-03-08T03:59:34;100427.41;;;5.02;100.00
68193;BME280;55012;47.562;18.414;2024-03-08T04:02:00;100425.53;;;5.02;100.00
68193;BME280;55012;47.562;18.414;2024-03-08T04:04:25;100431.97;;;5.01;100.00
68193;BME280;55012;47.562;18.414;2024-03-08T04:06:50;100429.81;;;5.03;100.00
68193;BME280;55012;47.562;18.414;2024-03-08T04:09:16;100424.19;;;5.05;100.00
68193;BME280;55012;47.562;18.414;2024-03-08T04:11:44;100427.38;;;5.07;100.00
68193;BME280;55012;47.562;18.414;2024-03-08T04:14:09;100426.31;;;5.08;100.00
68193;BME280;55012;47.562;18.414;2024-03-08T04:16:35;100424.41;;;5.08;100.00
68193;BME280;55012;47.562;18.414;2024-03-08T04:19:01;100425.72;;;5.11;100.00
68193;BME280;55012;47.562;18.414;2024-03-08T04:21:30;100427.09;;;5.08;100.00
68193;BME280;55012;47.562;18.414;2024-03-08T04:23:55;100420.13;;;5.07;100.00
68193;BME280;55012;47.562;18.414;2024-03-08T04:26:21;100418.81;;;5.05;100.00
68193;BME280;55012;47.562;18.414;2024-03-08T04:28:46;100413.72;;;5.03;100.00
68193;BME280;55012;47.562;18.414;2024-03-08T04:31:12;100414.28;;;5.00;100.00
68193;BME280;55012;47.562;18.414;2024-03-08T04:33:37;100411.09;;;4.98;100.00
68193;BME280;55012;47.562;18.414;2024-03-08T04:36:04;100414.31;;;4.95;100.00
68193;BME280;55012;47.562;18.414;2024-03-08T04:38:29;100410.53;;;4.96;100.00
68193;BME280;55012;47.562;18.414;2024-03-08T04:40:56;100420.44;;;5.01;100.00
68193;BME280;55012;47.562;18.414;2024-03-08T04:43:22;100415.88;;;5.01;100.00
68193;BME280;55012;47.562;18.414;2024-03-08T04:45:50;100421.81;;;4.98;100.00
68193;BME280;55012;47.562;18.414;2024-03-08T04:48:16;100423.16;;;4.96;100.00
68193;BME280;55012;47.562;18.414;2024-03-08T04:50:41;100417.56;;;4.87;100.00
68193;BME280;55012;47.562;18.414;2024-03-08T04:53:07;100424.81;;;4.87;100.00
68193;BME280;55012;47.562;18.414;2024-03-08T04:55:34;100420.53;;;4.86;100.00
68193;BME280;55012;47.562;18.414;2024-03-08T04:57:59;100424.00;;;4.86;100.00
68193;BME280;55012;47.562;18.414;2024-03-08T05:00:24;100426.97;;;4.85;100.00
68193;BME280;55012;47.562;18.414;2024-03-08T05:02:50;100435.81;;;4.85;100.00
68193;BME280;55012;47.562;18.414;2024-03-08T05:05:18;100435.03;;;4.85;100.00
68193;BME280;55012;47.562;18.414;2024-03-08T05:07:44;100433.41;;;4.89;100.00
68193;BME280;55012;47.562;18.414;2024-03-08T05:10:11;100441.41;;;4.94;100.00
68193;BME280;55012;47.562;18.414;2024-03-08T05:12:36;100440.88;;;4.92;100.00
68193;BME280;55012;47.562;18.414;2024-03-08T05:15:04;100441.66;;;4.97;100.00
68193;BME280;55012;47.562;18.414;2024-03-08T05:17:30;100445.09;;;5.03;100.00
68193;BME280;55012;47.562;18.414;2024-03-08T05:19:55;100444.00;;;5.09;100.00
68193;BME280;55012;47.562;18.414;2024-03-08T05:22:21;100442.91;;;5.10;100.00
68193;BME280;55012;47.562;18.414;2024-03-08T05:24:46;100443.69;;;5.16;100.00
68193;BME280;55012;47.562;18.414;2024-03-08T05:27:11;100436.16;;;5.18;100.00
68193;BME280;55012;47.562;18.414;2024-03-08T05:29:38;100447.41;;;5.20;100.00
68193;BME280;55012;47.562;18.414;2024-03-08T05:32:03;100441.53;;;5.18;100.00
68193;BME280;55012;47.562;18.414;2024-03-08T05:34:29;100447.94;;;5.22;100.00
68193;BME280;55012;47.562;18.414;2024-03-08T05:36:54;100453.84;;;5.19;100.00
68193;BME280;55012;47.562;18.414;2024-03-08T05:39:20;100432.69;;;5.12;100.00
68193;BME280;55012;47.562;18.414;2024-03-08T05:41:45;100433.25;;;5.14;100.00
68193;BME280;55012;47.562;18.414;2024-03-08T05:44:11;100434.03;;;5.15;100.00
68193;BME280;55012;47.562;18.414;2024-03-08T05:46:37;100438.03;;;5.17;100.00
68193;BME280;55012;47.562;18.414;2024-03-08T05:49:03;100436.94;;;5.18;100.00
68193;BME280;55012;47.562;18.414;2024-03-08T05:51:35;100431.59;;;5.18;100.00
68193;BME280;55012;47.562;18.414;2024-03-08T05:54:01;100430.22;;;5.21;100.00
68193;BME280;55012;47.562;18.414;2024-03-08T05:56:28;100433.97;;;5.25;100.00
68193;BME280;55012;47.562;18.414;2024-03-08T05:58:54;100430.72;;;5.28;100.00
68193;BME280;55012;47.562;18.414;2024-03-08T06:01:19;100422.38;;;5.29;100.00
68193;BME280;55012;47.562;18.414;2024-03-08T06:03:45;100426.91;;;5.34;100.00
68193;BME280;55012;47.562;18.414;2024-03-08T06:06:13;100426.41;;;5.32;100.00
68193;BME280;55012;47.562;18.414;2024-03-08T06:08:39;100410.63;;;5.25;100.00
68193;BME280;55012;47.562;18.414;2024-03-08T06:11:05;100412.50;;;5.25;100.00
68193;BME280;55012;47.562;18.414;2024-03-08T06:13:32;100411.41;;;5.26;100.00
68193;BME280;55012;47.562;18.414;2024-03-08T06:15:57;100409.00;;;5.24;100.00
68193;BME280;55012;47.562;18.414;2024-03-08T06:18:22;100407.91;;;5.30;100.00
68193;BME280;55012;47.562;18.414;2024-03-08T06:20:48;100408.63;;;5.36;100.00
68193;BME280;55012;47.562;18.414;2024-03-08T06:23:13;100404.34;;;5.35;100.00
68193;BME280;55012;47.562;18.414;2024-03-08T06:25:43;100404.63;;;5.39;100.00
68193;BME280;55012;47.562;18.414;2024-03-08T06:28:08;100408.84;;;5.45;100.00
68193;BME280;55012;47.562;18.414;2024-03-08T06:30:34;100406.13;;;5.50;100.00
68193;BME280;55012;47.562;18.414;2024-03-08T06:33:00;100411.72;;;5.53;100.00
68193;BME280;55012;47.562;18.414;2024-03-08T06:35:25;100405.50;;;5.58;100.00
68193;BME280;55012;47.562;18.414;2024-03-08T06:37:50;100403.03;;;5.61;100.00
68193;BME280;55012;47.562;18.414;2024-03-08T06:40:16;100398.75;;;5.60;100.00
68193;BME280;55012;47.562;18.414;2024-03-08T06:42:41;100398.47;;;5.62;100.00
68193;BME280;55012;47.562;18.414;2024-03-08T06:45:07;100388.53;;;5.62;100.00
68193;BME280;55012;47.562;18.414;2024-03-08T06:47:34;100383.72;;;5.64;100.00
68193;BME280;55012;47.562;18.414;2024-03-08T06:49:59;100385.22;;;5.71;100.00
68193;BME280;55012;47.562;18.414;2024-03-08T06:52:25;100375.31;;;5.71;100.00
68193;BME280;55012;47.562;18.414;2024-03-08T06:54:50;100371.81;;;5.71;100.00
68193;BME280;55012;47.562;18.414;2024-03-08T06:57:17;100366.72;;;5.69;100.00
68193;BME280;55012;47.562;18.414;2024-03-08T06:59:43;100362.53;;;5.63;100.00
68193;BME280;55012;47.562;18.414;2024-03-08T07:02:10;100351.25;;;5.61;100.00
68193;BME280;55012;47.562;18.414;2024-03-08T07:04:35;100348.06;;;5.59;100.00
68193;BME280;55012;47.562;18.414;2024-03-08T07:07:04;100349.91;;;5.63;100.00
68193;BME280;55012;47.562;18.414;2024-03-08T07:09:29;100345.88;;;5.61;100.00
68193;BME280;55012;47.562;18.414;2024-03-08T07:11:54;100337.81;;;5.61;100.00
68193;BME280;55012;47.562;18.414;2024-03-08T07:14:23;100337.53;;;5.62;100.00
68193;BME280;55012;47.562;18.414;2024-03-08T07:16:50;100341.03;;;5.63;100.00
68193;BME280;55012;47.562;18.414;2024-03-08T07:19:16;100344.00;;;5.61;100.00
68193;BME280;55012;47.562;18.414;2024-03-08T07:21:45;100337.53;;;5.62;100.00
68193;BME280;55012;47.562;18.414;2024-03-08T07:24:12;100341.25;;;5.67;100.00
68193;BME280;55012;47.562;18.414;2024-03-08T07:27:06;100333.16;;;5.72;100.00
68193;BME280;55012;47.562;18.414;2024-03-08T07:29:32;100350.53;;;5.79;100.00
68193;BME280;55012;47.562;18.414;2024-03-08T07:31:59;100343.28;;;5.80;100.00
68193;BME280;55012;47.562;18.414;2024-03-08T07:34:43;100327.22;;;5.75;100.00
68193;BME280;55012;47.562;18.414;2024-03-08T07:37:08;100333.88;;;5.77;100.00
68193;BME280;55012;47.562;18.414;2024-03-08T07:39:37;100330.41;;;5.77;100.00
68193;BME280;55012;47.562;18.414;2024-03-08T07:42:02;100329.06;;;5.79;100.00
68193;BME280;55012;47.562;18.414;2024-03-08T07:44:28;100320.41;;;5.82;100.00
68193;BME280;55012;47.562;18.414;2024-03-08T07:46:54;100322.22;;;5.87;100.00
68193;BME280;55012;47.562;18.414;2024-03-08T07:49:20;100329.47;;;5.91;100.00
68193;BME280;55012;47.562;18.414;2024-03-08T07:51:45;100325.94;;;5.96;100.00
68193;BME280;55012;47.562;18.414;2024-03-08T07:54:10;100323.63;;;6.08;100.00
68193;BME280;55012;47.562;18.414;2024-03-08T07:56:36;100315.94;;;6.20;100.00
68193;BME280;55012;47.562;18.414;2024-03-08T07:59:02;100307.97;;;6.34;100.00
68193;BME280;55012;47.562;18.414;2024-03-08T08:01:29;100298.88;;;6.49;100.00
68193;BME280;55012;47.562;18.414;2024-03-08T08:03:56;100287.41;;;6.62;100.00
68193;BME280;55012;47.562;18.414;2024-03-08T08:06:21;100257.44;;;6.69;100.00
68193;BME280;55012;47.562;18.414;2024-03-08T08:08:47;100231.06;;;6.71;100.00
68193;BME280;55012;47.562;18.414;2024-03-08T08:11:12;100182.94;;;6.69;100.00
68193;BME280;55012;47.562;18.414;2024-03-08T08:13:37;100169.81;;;6.68;100.00
68193;BME280;55012;47.562;18.414;2024-03-08T08:16:04;100134.72;;;6.59;100.00
68193;BME280;55012;47.562;18.414;2024-03-08T08:18:31;100115.41;;;6.57;100.00
68193;BME280;55012;47.562;18.414;2024-03-08T08:20:58;100117.44;;;6.65;100.00
68193;BME280;55012;47.562;18.414;2024-03-08T08:23:25;100100.91;;;6.72;100.00
68193;BME280;55012;47.562;18.414;2024-03-08T08:25:51;100088.06;;;6.83;100.00
68193;BME280;55012;47.562;18.414;2024-03-08T08:28:17;100077.47;;;6.86;100.00
68193;BME280;55012;47.562;18.414;2024-03-08T08:30:43;100063.53;;;6.84;100.00
68193;BME280;55012;47.562;18.414;2024-03-08T08:33:08;100045.50;;;6.85;100.00
68193;BME280;55012;47.562;18.414;2024-03-08T08:35:34;100032.56;;;6.87;100.00
68193;BME280;55012;47.562;18.414;2024-03-08T08:37:59;100024.69;;;6.90;100.00
68193;BME280;55012;47.562;18.414;2024-03-08T08:40:25;100015.72;;;6.95;100.00
68193;BME280;55012;47.562;18.414;2024-03-08T08:42:51;100000.56;;;6.99;100.00
68193;BME280;55012;47.562;18.414;2024-03-08T08:45:18;99986.03;;;7.00;100.00
68193;BME280;55012;47.562;18.414;2024-03-08T08:47:44;99982.72;;;7.03;100.00
68193;BME280;55012;47.562;18.414;2024-03-08T08:50:10;99964.41;;;7.05;100.00
68193;BME280;55012;47.562;18.414;2024-03-08T08:52:39;99959.19;;;7.09;100.00
68193;BME280;55012;47.562;18.414;2024-03-08T08:55:05;99949.72;;;7.11;100.00
68193;BME280;55012;47.562;18.414;2024-03-08T08:57:32;99936.16;;;7.16;100.00
68193;BME280;55012;47.562;18.414;2024-03-08T08:59:58;99924.19;;;7.22;100.00
68193;BME280;55012;47.562;18.414;2024-03-08T09:02:23;99910.78;;;7.31;100.00
68193;BME280;55012;47.562;18.414;2024-03-08T09:04:51;99892.13;;;7.35;100.00
68193;BME280;55012;47.562;18.414;2024-03-08T09:07:16;99867.66;;;7.45;100.00
68193;BME280;55012;47.562;18.414;2024-03-08T09:09:44;99838.22;;;7.48;100.00
68193;BME280;55012;47.562;18.414;2024-03-08T09:12:09;99812.41;;;7.47;100.00
68193;BME280;55012;47.562;18.414;2024-03-08T09:14:41;99802.91;;;7.50;100.00
68193;BME280;55012;47.562;18.414;2024-03-08T09:17:06;99791.66;;;7.48;100.00
68193;BME280;55012;47.562;18.414;2024-03-08T09:19:34;99781.69;;;7.48;100.00
68193;BME280;55012;47.562;18.414;2024-03-08T09:21:59;99770.75;;;7.45;100.00
68193;BME280;55012;47.562;18.414;2024-03-08T09:24:24;99775.03;;;7.46;100.00
68193;BME280;55012;47.562;18.414;2024-03-08T09:26:50;99756.41;;;7.27;100.00
68193;BME280;55012;47.562;18.414;2024-03-08T09:29:15;99764.31;;;7.23;100.00
68193;BME280;55012;47.562;18.414;2024-03-08T09:31:41;99768.22;;;7.17;100.00
68193;BME280;55012;47.562;18.414;2024-03-08T09:34:06;99783.91;;;7.15;100.00
68193;BME280;55012;47.562;18.414;2024-03-08T09:36:33;99790.97;;;7.11;100.00
68193;BME280;55012;47.562;18.414;2024-03-08T09:38:59;99807.13;;;7.11;100.00
68193;BME280;55012;47.562;18.414;2024-03-08T09:41:25;99817.28;;;7.14;100.00
68193;BME280;55012;47.562;18.414;2024-03-08T09:43:51;99824.13;;;7.20;100.00
68193;BME280;55012;47.562;18.414;2024-03-08T09:46:18;99834.97;;;7.29;100.00
68193;BME280;55012;47.562;18.414;2024-03-08T09:48:45;99834.06;;;7.42;100.00
68193;BME280;55012;47.562;18.414;2024-03-08T09:51:12;99839.03;;;7.57;100.00
68193;BME280;55012;47.562;18.414;2024-03-08T09:53:40;99824.66;;;7.62;100.00
68193;BME280;55012;47.562;18.414;2024-03-08T09:56:07;99825.19;;;7.73;100.00
68193;BME280;55012;47.562;18.414;2024-03-08T09:58:33;99815.88;;;7.79;100.00
68193;BME280;55012;47.562;18.414;2024-03-08T10:00:59;99807.81;;;7.87;100.00
68193;BME280;55012;47.562;18.414;2024-03-08T10:03:27;99791.50;;;8.01;100.00
68193;BME280;55012;47.562;18.414;2024-03-08T10:05:53;99774.88;;;8.16;100.00
68193;BME280;55012;47.562;18.414;2024-03-08T10:08:21;99761.75;;;8.32;100.00
68193;BME280;55012;47.562;18.414;2024-03-08T10:10:47;99744.81;;;8.49;100.00
68193;BME280;55012;47.562;18.414;2024-03-08T10:13:12;99714.97;;;8.63;100.00
68193;BME280;55012;47.562;18.414;2024-03-08T10:15:39;99697.16;;;8.88;100.00
68193;BME280;55012;47.562;18.414;2024-03-08T10:18:06;99668.75;;;9.28;100.00
68193;BME280;55012;47.562;18.414;2024-03-08T10:20:32;99638.50;;;9.65;100.00
68193;BME280;55012;47.562;18.414;2024-03-08T10:23:01;99581.34;;;9.96;100.00
68193;BME280;55012;47.562;18.414;2024-03-08T10:25:28;99523.97;;;10.11;100.00
68193;BME280;55012;47.562;18.414;2024-03-08T10:27:55;99469.66;;;10.04;100.00
68193;BME280;55012;47.562;18.414;2024-03-08T10:30:21;99432.38;;;9.85;100.00
68193;BME280;55012;47.562;18.414;2024-03-08T10:32:47;99413.16;;;9.53;100.00
68193;BME280;55012;47.562;18.414;2024-03-08T10:35:13;99402.88;;;9.14;100.00
68193;BME280;55012;47.562;18.414;2024-03-08T10:37:45;99412.66;;;8.77;100.00
68193;BME280;55012;47.562;18.414;2024-03-08T10:40:19;99425.69;;;8.54;100.00
68193;BME280;55012;47.562;18.414;2024-03-08T10:42:58;99448.16;;;8.28;100.00
68193;BME280;55012;47.562;18.414;2024-03-08T10:45:30;99482.59;;;8.14;100.00
68193;BME280;55012;47.562;18.414;2024-03-08T10:48:10;99506.25;;;8.00;100.00
68193;BME280;55012;47.562;18.414;2024-03-08T10:50:42;99537.16;;;7.94;100.00
68193;BME280;55012;47.562;18.414;2024-03-08T10:53:11;99556.97;;;7.89;100.00
68193;BME280;55012;47.562;18.414;2024-03-08T10:55:40;99579.16;;;7.77;100.00
68193;BME280;55012;47.562;18.414;2024-03-08T10:58:08;99614.66;;;7.62;100.00
68193;BME280;55012;47.562;18.414;2024-03-08T11:00:34;99646.44;;;7.51;100.00
68193;BME280;55012;47.562;18.414;2024-03-08T11:03:00;99678.09;;;7.37;100.00
68193;BME280;55012;47.562;18.414;2024-03-08T11:05:35;99715.88;;;7.23;100.00
68193;BME280;55012;47.562;18.414;2024-03-08T11:08:05;99748.91;;;7.15;100.00
68193;BME280;55012;47.562;18.414;2024-03-08T11:10:48;99771.19;;;7.07;100.00
68193;BME280;55012;47.562;18.414;2024-03-08T11:13:34;99810.75;;;7.07;100.00
68193;BME280;55012;47.562;18.414;2024-03-08T11:16:06;99827.00;;;7.01;100.00
68193;BME280;55012;47.562;18.414;2024-03-08T11:18:33;99852.53;;;7.04;100.00
68193;BME280;55012;47.562;18.414;2024-03-08T11:21:03;99877.22;;;7.06;100.00
68193;BME280;55012;47.562;18.414;2024-03-08T11:23:32;99886.13;;;6.93;100.00
68193;BME280;55012;47.562;18.414;2024-03-08T11:25:59;99919.81;;;6.90;100.00
68193;BME280;55012;47.562;18.414;2024-03-08T11:28:24;99942.72;;;6.88;100.00
68193;BME280;55012;47.562;18.414;2024-03-08T11:33:24;99990.72;;;6.94;100.00
68193;BME280;55012;47.562;18.414;2024-03-08T11:35:52;100002.25;;;6.95;100.00
68193;BME280;55012;47.562;18.414;2024-03-08T11:38:17;100022.72;;;6.96;100.00
68193;BME280;55012;47.562;18.414;2024-03-08T11:40:46;100034.34;;;6.91;100.00
68193;BME280;55012;47.562;18.414;2024-03-08T11:43:16;100049.97;;;7.03;100.00
68193;BME280;55012;47.562;18.414;2024-03-08T11:45:41;100073.38;;;7.30;100.00
68193;BME280;55012;47.562;18.414;2024-03-08T11:48:07;100083.72;;;7.73;100.00
68193;BME280;55012;47.562;18.414;2024-03-08T11:50:32;100073.25;;;8.16;100.00
68193;BME280;55012;47.562;18.414;2024-03-08T11:53:04;100044.16;;;8.58;100.00
68193;BME280;55012;47.562;18.414;2024-03-08T11:55:33;99969.19;;;8.94;100.00
68193;BME280;55012;47.562;18.414;2024-03-08T11:58:05;99867.75;;;9.19;100.00
68193;BME280;55012;47.562;18.414;2024-03-08T12:00:33;99788.91;;;9.35;100.00
68193;BME280;55012;47.562;18.414;2024-03-08T12:03:07;99714.25;;;9.39;100.00
68193;BME280;55012;47.562;18.414;2024-03-08T12:05:33;99656.81;;;9.29;100.00
68193;BME280;55012;47.562;18.414;2024-03-08T12:07:59;99616.72;;;9.19;100.00
68193;BME280;55012;47.562;18.414;2024-03-08T12:10:25;99592.91;;;9.13;100.00
68193;BME280;55012;47.562;18.414;2024-03-08T12:12:52;99583.75;;;9.05;100.00
68193;BME280;55012;47.562;18.414;2024-03-08T12:15:20;99564.25;;;8.99;100.00
68193;BME280;55012;47.562;18.414;2024-03-08T12:17:50;99565.03;;;9.00;100.00
68193;BME280;55012;47.562;18.414;2024-03-08T12:20:18;99549.34;;;8.93;100.00
68193;BME280;55012;47.562;18.414;2024-03-08T12:22:47;99536.75;;;8.77;100.00
68193;BME280;55012;47.562;18.414;2024-03-08T12:25:13;99535.25;;;8.58;100.00
68193;BME280;55012;47.562;18.414;2024-03-08T12:27:43;99546.56;;;8.43;100.00
68193;BME280;55012;47.562;18.414;2024-03-08T12:30:22;99553.28;;;8.20;100.00
68193;BME280;55012;47.562;18.414;2024-03-08T12:32:55;99568.19;;;8.08;100.00
68193;BME280;55012;47.562;18.414;2024-03-08T12:35:26;99597.34;;;8.15;100.00
68193;BME280;55012;47.562;18.414;2024-03-08T12:37:56;99610.97;;;8.18;100.00
68193;BME280;55012;47.562;18.414;2024-03-08T12:40:26;99622.84;;;8.26;100.00
68193;BME280;55012;47.562;18.414;2024-03-08T12:42:52;99612.84;;;8.27;100.00